sensor_id;sensor_type;location;lat;lon;timestamp;temperature;humidity
15819;DHT22;8010;53.986;12.106;2022-12-16T00:01:13;-1.00;99.90
15819;DHT22;8010;53.986;12.106;2022-12-16T00:03:39;-0.90;99.90
15819;DHT22;8010;53.986;12.106;2022-12-16T00:06:07;-0.90;99.90
15819;DHT22;8010;53.986;12.106;2022-12-16T00:08:38;-0.80;99.90
15819;DHT22;8010;53.986;12.106;2022-12-16T00:11:05;-0.90;99.90
15819;DHT22;8010;53.986;12.106;2022-12-16T00:13:33;-0.90;99.90
15819;DHT22;8010;53.986;12.106;2022-12-16T00:15:59;-0.80;99.90
15819;DHT22;8010;53.986;12.106;2022-12-16T00:18:28;-0.90;99.90
15819;DHT22;8010;53.986;12.106;2022-12-16T00:20:54;-0.90;99.90
15819;DHT22;8010;53.986;12.106;2022-12-16T00:23:21;-0.80;99.90
15819;DHT22;8010;53.986;12.106;2022-12-16T00:25:46;-0.80;99.90
15819;DHT22;8010;53.986;12.106;2022-12-16T00:28:14;-0.80;99.90
15819;DHT22;8010;53.986;12.106;2022-12-16T00:30:41;-0.80;99.90
15819;DHT22;8010;53.986;12.106;2022-12-16T00:33:07;0.00;99.90
15819;DHT22;8010;53.986;12.106;2022-12-16T00:35:33;-0.70;99.90
15819;DHT22;8010;53.986;12.106;2022-12-16T00:37:58;-0.70;99.90
15819;DHT22;8010;53.986;12.106;2022-12-16T00:40:24;-0.70;99.90
15819;DHT22;8010;53.986;12.106;2022-12-16T00:42:50;-0.70;99.90
15819;DHT22;8010;53.986;12.106;2022-12-16T00:45:16;-0.80;99.90
15819;DHT22;8010;53.986;12.106;2022-12-16T00:47:41;-0.80;99.90
15819;DHT22;8010;53.986;12.106;2022-12-16T00:50:08;-0.80;99.90
15819;DHT22;8010;53.986;12.106;2022-12-16T00:52:34;-0.80;99.90
15819;DHT22;8010;53.986;12.106;2022-12-16T00:54:59;-0.40;99.90
15819;DHT22;8010;53.986;12.106;2022-12-16T00:57:25;-0.80;99.90
15819;DHT22;8010;53.986;12.106;2022-12-16T00:59:50;-0.80;99.90
15819;DHT22;8010;53.986;12.106;2022-12-16T01:02:16;-0.70;99.90
15819;DHT22;8010;53.986;12.106;2022-12-16T01:04:42;-0.70;99.90
15819;DHT22;8010;53.986;12.106;2022-12-16T01:07:08;-0.70;99.90
15819;DHT22;8010;53.986;12.106;2022-12-16T01:09:34;-0.70;99.90
15819;DHT22;8010;53.986;12.106;2022-12-16T01:12:00;-0.70;99.90
15819;DHT22;8010;53.986;12.106;2022-12-16T01:14:25;-0.70;99.90
15819;DHT22;8010;53.986;12.106;2022-12-16T01:16:51;-0.70;99.90
15819;DHT22;8010;53.986;12.106;2022-12-16T01:19:16;-0.70;99.90
15819;DHT22;8010;53.986;12.106;2022-12-16T01:21:42;-0.70;99.90
15819;DHT22;8010;53.986;12.106;2022-12-16T01:24:09;-0.80;99.90
15819;DHT22;8010;53.986;12.106;2022-12-16T01:26:35;-0.80;99.90
15819;DHT22;8010;53.986;12.106;2022-12-16T01:29:01;-0.80;99.90
15819;DHT22;8010;53.986;12.106;2022-12-16T01:31:27;-0.80;99.90
15819;DHT22;8010;53.986;12.106;2022-12-16T01:33:53;-0.70;99.90
15819;DHT22;8010;53.986;12.106;2022-12-16T01:36:19;-0.80;99.90
15819;DHT22;8010;53.986;12.106;2022-12-16T01:38:45;-0.80;99.90
15819;DHT22;8010;53.986;12.106;2022-12-16T01:41:12;-0.70;99.90
15819;DHT22;8010;53.986;12.106;2022-12-16T01:43:40;-0.60;99.90
15819;DHT22;8010;53.986;12.106;2022-12-16T01:46:20;-0.60;99.90
15819;DHT22;8010;53.986;12.106;2022-12-16T01:49:00;-0.60;99.90
15819;DHT22;8010;53.986;12.106;2022-12-16T01:54:00;-0.60;99.90
15819;DHT22;8010;53.986;12.106;2022-12-16T01:56:30;-0.50;99.90
15819;DHT22;8010;53.986;12.106;2022-12-16T01:58:58;-0.50;99.90
15819;DHT22;8010;53.986;12.106;2022-12-16T02:01:25;-0.50;99.90
15819;DHT22;8010;53.986;12.106;2022-12-16T02:03:52;-0.50;99.90
15819;DHT22;8010;53.986;12.106;2022-12-16T02:06:18;-0.60;99.90
15819;DHT22;8010;53.986;12.106;2022-12-16T02:08:44;-0.60;99.90
15819;DHT22;8010;53.986;12.106;2022-12-16T02:26:12;-0.60;99.90
15819;DHT22;8010;53.986;12.106;2022-12-16T02:29:06;-0.60;99.90
15819;DHT22;8010;53.986;12.106;2022-12-16T02:31:52;-0.70;99.90
15819;DHT22;8010;53.986;12.106;2022-12-16T02:34:30;-0.70;99.90
15819;DHT22;8010;53.986;12.106;2022-12-16T02:40:00;-0.70;99.90
15819;DHT22;8010;53.986;12.106;2022-12-16T02:42:39;-0.70;99.90
15819;DHT22;8010;53.986;12.106;2022-12-16T02:45:11;-0.80;99.90
15819;DHT22;8010;53.986;12.106;2022-12-16T02:47:38;-0.50;99.90
15819;DHT22;8010;53.986;12.106;2022-12-16T02:50:13;-0.80;99.90
15819;DHT22;8010;53.986;12.106;2022-12-16T02:52:40;-0.70;99.90
15819;DHT22;8010;53.986;12.106;2022-12-16T02:55:07;-0.70;99.90
15819;DHT22;8010;53.986;12.106;2022-12-16T03:00:33;-0.70;99.90
15819;DHT22;8010;53.986;12.106;2022-12-16T03:03:23;-0.70;99.90
15819;DHT22;8010;53.986;12.106;2022-12-16T03:05:54;-0.70;99.90
15819;DHT22;8010;53.986;12.106;2022-12-16T03:08:25;-0.70;99.90
15819;DHT22;8010;53.986;12.106;2022-12-16T03:10:56;-0.70;99.90
15819;DHT22;8010;53.986;12.106;2022-12-16T03:13:24;-0.70;99.90
15819;DHT22;8010;53.986;12.106;2022-12-16T03:15:52;-0.80;99.90
15819;DHT22;8010;53.986;12.106;2022-12-16T03:18:19;-0.80;99.90
15819;DHT22;8010;53.986;12.106;2022-12-16T03:21:01;-0.80;99.90
15819;DHT22;8010;53.986;12.106;2022-12-16T03:23:43;-0.80;99.90
15819;DHT22;8010;53.986;12.106;2022-12-16T03:26:35;-0.70;99.90
15819;DHT22;8010;53.986;12.106;2022-12-16T03:29:07;-0.70;99.90
15819;DHT22;8010;53.986;12.106;2022-12-16T03:31:48;-0.70;99.90
15819;DHT22;8010;53.986;12.106;2022-12-16T03:34:33;-0.70;99.90
15819;DHT22;8010;53.986;12.106;2022-12-16T03:37:02;-0.70;99.90
15819;DHT22;8010;53.986;12.106;2022-12-16T03:39:31;-0.70;99.90
15819;DHT22;8010;53.986;12.106;2022-12-16T03:41:58;-0.70;99.90
15819;DHT22;8010;53.986;12.106;2022-12-16T03:44:24;-0.70;99.90
15819;DHT22;8010;53.986;12.106;2022-12-16T03:46:50;-0.60;99.90
15819;DHT22;8010;53.986;12.106;2022-12-16T03:49:16;-0.60;99.90
15819;DHT22;8010;53.986;12.106;2022-12-16T03:51:41;-0.60;99.90
15819;DHT22;8010;53.986;12.106;2022-12-16T03:54:07;-0.70;99.90
15819;DHT22;8010;53.986;12.106;2022-12-16T03:56:32;-0.70;99.90
15819;DHT22;8010;53.986;12.106;2022-12-16T03:58:58;-0.70;99.90
15819;DHT22;8010;53.986;12.106;2022-12-16T04:01:24;-0.70;99.90
15819;DHT22;8010;53.986;12.106;2022-12-16T04:03:50;-0.70;99.90
15819;DHT22;8010;53.986;12.106;2022-12-16T04:06:15;-0.70;99.90
15819;DHT22;8010;53.986;12.106;2022-12-16T04:08:46;-0.70;99.90
15819;DHT22;8010;53.986;12.106;2022-12-16T04:11:13;-0.70;99.90
15819;DHT22;8010;53.986;12.106;2022-12-16T04:13:57;-0.70;99.90
15819;DHT22;8010;53.986;12.106;2022-12-16T04:16:42;-0.60;99.90
15819;DHT22;8010;53.986;12.106;2022-12-16T04:19:30;-0.60;99.90
15819;DHT22;8010;53.986;12.106;2022-12-16T04:22:19;-0.60;99.90
15819;DHT22;8010;53.986;12.106;2022-12-16T04:25:12;-0.60;99.90
15819;DHT22;8010;53.986;12.106;2022-12-16T04:27:37;-0.60;99.90
15819;DHT22;8010;53.986;12.106;2022-12-16T04:30:04;-0.60;99.90
15819;DHT22;8010;53.986;12.106;2022-12-16T04:32:46;-0.50;99.90
15819;DHT22;8010;53.986;12.106;2022-12-16T04:35:31;-0.50;99.90
15819;DHT22;8010;53.986;12.106;2022-12-16T04:38:15;-0.50;99.90
15819;DHT22;8010;53.986;12.106;2022-12-16T04:40:59;-0.50;99.90
15819;DHT22;8010;53.986;12.106;2022-12-16T04:44:00;-0.50;99.90
15819;DHT22;8010;53.986;12.106;2022-12-16T04:46:44;-0.50;99.90
15819;DHT22;8010;53.986;12.106;2022-12-16T04:49:28;-0.50;99.90
15819;DHT22;8010;53.986;12.106;2022-12-16T04:52:13;-0.50;99.90
15819;DHT22;8010;53.986;12.106;2022-12-16T04:54:57;-0.50;99.90
15819;DHT22;8010;53.986;12.106;2022-12-16T04:57:46;-0.50;99.90
15819;DHT22;8010;53.986;12.106;2022-12-16T05:00:31;-0.60;99.90
15819;DHT22;8010;53.986;12.106;2022-12-16T05:03:15;-0.60;99.90
15819;DHT22;8010;53.986;12.106;2022-12-16T05:05:59;-0.60;99.90
15819;DHT22;8010;53.986;12.106;2022-12-16T05:08:43;-0.70;99.90
15819;DHT22;8010;53.986;12.106;2022-12-16T05:11:27;-0.70;99.90
15819;DHT22;8010;53.986;12.106;2022-12-16T05:14:11;-0.70;99.90
15819;DHT22;8010;53.986;12.106;2022-12-16T05:16:55;-0.60;99.90
15819;DHT22;8010;53.986;12.106;2022-12-16T05:19:39;-0.60;99.90
15819;DHT22;8010;53.986;12.106;2022-12-16T05:22:23;-0.50;99.90
15819;DHT22;8010;53.986;12.106;2022-12-16T05:25:08;-0.60;99.90
15819;DHT22;8010;53.986;12.106;2022-12-16T05:27:54;-0.60;99.90
15819;DHT22;8010;53.986;12.106;2022-12-16T05:30:38;-0.60;99.90
15819;DHT22;8010;53.986;12.106;2022-12-16T05:33:22;-0.70;99.90
15819;DHT22;8010;53.986;12.106;2022-12-16T05:36:07;-0.70;99.90
15819;DHT22;8010;53.986;12.106;2022-12-16T05:38:51;-0.70;99.90
15819;DHT22;8010;53.986;12.106;2022-12-16T05:41:36;-0.70;99.90
15819;DHT22;8010;53.986;12.106;2022-12-16T05:44:20;-0.70;99.90
15819;DHT22;8010;53.986;12.106;2022-12-16T05:47:05;-0.70;99.90
15819;DHT22;8010;53.986;12.106;2022-12-16T05:49:49;-0.70;99.90
15819;DHT22;8010;53.986;12.106;2022-12-16T05:52:33;-0.70;99.90
15819;DHT22;8010;53.986;12.106;2022-12-16T05:55:18;-0.70;99.90
15819;DHT22;8010;53.986;12.106;2022-12-16T05:58:02;-0.70;99.90
15819;DHT22;8010;53.986;12.106;2022-12-16T06:00:46;-0.70;99.90
15819;DHT22;8010;53.986;12.106;2022-12-16T06:03:30;-0.70;99.90
15819;DHT22;8010;53.986;12.106;2022-12-16T06:06:14;-0.70;99.90
15819;DHT22;8010;53.986;12.106;2022-12-16T06:08:58;-0.70;99.90
15819;DHT22;8010;53.986;12.106;2022-12-16T06:11:42;-0.70;99.90
15819;DHT22;8010;53.986;12.106;2022-12-16T06:14:26;-0.60;99.90
15819;DHT22;8010;53.986;12.106;2022-12-16T06:17:10;-0.70;99.90
15819;DHT22;8010;53.986;12.106;2022-12-16T06:19:54;-0.60;99.90
15819;DHT22;8010;53.986;12.106;2022-12-16T06:22:38;-0.70;99.90
15819;DHT22;8010;53.986;12.106;2022-12-16T06:25:22;-0.70;99.90
15819;DHT22;8010;53.986;12.106;2022-12-16T06:28:06;-0.70;99.90
15819;DHT22;8010;53.986;12.106;2022-12-16T06:30:51;-0.60;99.90
15819;DHT22;8010;53.986;12.106;2022-12-16T06:33:35;-0.70;99.90
15819;DHT22;8010;53.986;12.106;2022-12-16T06:36:19;-0.70;99.90
15819;DHT22;8010;53.986;12.106;2022-12-16T06:39:03;-0.80;99.90
15819;DHT22;8010;53.986;12.106;2022-12-16T06:41:47;-0.70;99.90
15819;DHT22;8010;53.986;12.106;2022-12-16T06:44:31;-0.70;99.90
15819;DHT22;8010;53.986;12.106;2022-12-16T06:47:15;-0.70;99.90
15819;DHT22;8010;53.986;12.106;2022-12-16T06:49:59;-0.70;99.90
15819;DHT22;8010;53.986;12.106;2022-12-16T06:52:43;-0.70;99.90
15819;DHT22;8010;53.986;12.106;2022-12-16T06:55:28;-0.70;99.90
15819;DHT22;8010;53.986;12.106;2022-12-16T06:58:12;-0.70;99.90
15819;DHT22;8010;53.986;12.106;2022-12-16T07:00:56;-0.70;99.90
15819;DHT22;8010;53.986;12.106;2022-12-16T07:03:40;-0.70;99.90
15819;DHT22;8010;53.986;12.106;2022-12-16T07:06:24;-0.80;99.90
15819;DHT22;8010;53.986;12.106;2022-12-16T07:09:08;-0.80;99.90
15819;DHT22;8010;53.986;12.106;2022-12-16T07:11:52;-0.90;99.90
15819;DHT22;8010;53.986;12.106;2022-12-16T07:14:36;-0.90;99.90
15819;DHT22;8010;53.986;12.106;2022-12-16T07:17:21;-0.90;99.90
15819;DHT22;8010;53.986;12.106;2022-12-16T07:20:05;-0.90;99.90
15819;DHT22;8010;53.986;12.106;2022-12-16T07:22:49;-1.00;99.90
15819;DHT22;8010;53.986;12.106;2022-12-16T07:25:33;-1.10;99.90
15819;DHT22;8010;53.986;12.106;2022-12-16T07:28:17;-1.20;99.90
15819;DHT22;8010;53.986;12.106;2022-12-16T07:31:01;-1.20;99.90
15819;DHT22;8010;53.986;12.106;2022-12-16T07:33:45;-1.30;99.90
15819;DHT22;8010;53.986;12.106;2022-12-16T07:36:29;-1.40;99.90
15819;DHT22;8010;53.986;12.106;2022-12-16T07:39:13;-1.40;99.90
15819;DHT22;8010;53.986;12.106;2022-12-16T07:41:57;-1.40;99.90
15819;DHT22;8010;53.986;12.106;2022-12-16T07:44:41;-1.40;99.90
15819;DHT22;8010;53.986;12.106;2022-12-16T07:47:26;-1.40;99.90
15819;DHT22;8010;53.986;12.106;2022-12-16T07:50:11;-1.40;99.90
15819;DHT22;8010;53.986;12.106;2022-12-16T07:52:56;-1.40;99.90
15819;DHT22;8010;53.986;12.106;2022-12-16T07:55:40;-1.40;99.90
15819;DHT22;8010;53.986;12.106;2022-12-16T07:58:25;-1.40;99.90
15819;DHT22;8010;53.986;12.106;2022-12-16T08:01:09;-1.40;99.90
15819;DHT22;8010;53.986;12.106;2022-12-16T08:03:53;-1.30;99.90
15819;DHT22;8010;53.986;12.106;2022-12-16T08:06:37;-1.40;99.90
15819;DHT22;8010;53.986;12.106;2022-12-16T08:09:21;-1.40;99.90
15819;DHT22;8010;53.986;12.106;2022-12-16T08:12:05;-1.40;99.90
15819;DHT22;8010;53.986;12.106;2022-12-16T08:14:50;-1.30;99.90
15819;DHT22;8010;53.986;12.106;2022-12-16T08:17:34;-1.30;99.90
15819;DHT22;8010;53.986;12.106;2022-12-16T08:20:18;-1.20;99.90
15819;DHT22;8010;53.986;12.106;2022-12-16T08:23:02;-1.00;99.90
15819;DHT22;8010;53.986;12.106;2022-12-16T08:25:46;-0.90;99.90
15819;DHT22;8010;53.986;12.106;2022-12-16T08:28:30;-0.80;99.90
15819;DHT22;8010;53.986;12.106;2022-12-16T08:31:14;-0.80;99.90
15819;DHT22;8010;53.986;12.106;2022-12-16T08:33:58;-0.70;99.90
15819;DHT22;8010;53.986;12.106;2022-12-16T08:36:42;-0.60;99.90
15819;DHT22;8010;53.986;12.106;2022-12-16T08:39:26;-0.50;99.90
15819;DHT22;8010;53.986;12.106;2022-12-16T08:42:10;-0.40;99.90
15819;DHT22;8010;53.986;12.106;2022-12-16T08:44:54;-0.40;99.90
15819;DHT22;8010;53.986;12.106;2022-12-16T08:47:38;-0.40;99.90
15819;DHT22;8010;53.986;12.106;2022-12-16T08:50:23;-0.30;99.90
15819;DHT22;8010;53.986;12.106;2022-12-16T08:53:08;-0.30;99.90
15819;DHT22;8010;53.986;12.106;2022-12-16T08:55:52;-0.30;99.90
15819;DHT22;8010;53.986;12.106;2022-12-16T08:58:36;-0.20;99.90
15819;DHT22;8010;53.986;12.106;2022-12-16T09:01:20;-0.20;99.90
15819;DHT22;8010;53.986;12.106;2022-12-16T09:04:04;-0.10;99.90
15819;DHT22;8010;53.986;12.106;2022-12-16T09:06:48;-0.20;99.90
15819;DHT22;8010;53.986;12.106;2022-12-16T09:09:32;-0.10;99.90
15819;DHT22;8010;53.986;12.106;2022-12-16T09:12:16;-0.10;99.90
15819;DHT22;8010;53.986;12.106;2022-12-16T09:15:00;-0.10;99.90
15819;DHT22;8010;53.986;12.106;2022-12-16T09:17:44;-0.10;99.90
15819;DHT22;8010;53.986;12.106;2022-12-16T09:20:28;0.00;99.90
15819;DHT22;8010;53.986;12.106;2022-12-16T09:23:12;0.00;99.90
15819;DHT22;8010;53.986;12.106;2022-12-16T09:25:57;0.00;99.90
15819;DHT22;8010;53.986;12.106;2022-12-16T09:28:41;0.00;99.90
15819;DHT22;8010;53.986;12.106;2022-12-16T09:31:25;0.00;99.90
15819;DHT22;8010;53.986;12.106;2022-12-16T09:34:09;0.00;99.90
15819;DHT22;8010;53.986;12.106;2022-12-16T09:36:53;0.10;99.90
15819;DHT22;8010;53.986;12.106;2022-12-16T09:39:36;0.10;99.90
15819;DHT22;8010;53.986;12.106;2022-12-16T09:42:27;0.20;99.90
15819;DHT22;8010;53.986;12.106;2022-12-16T09:45:32;0.20;99.90
15819;DHT22;8010;53.986;12.106;2022-12-16T09:48:27;0.20;99.90
15819;DHT22;8010;53.986;12.106;2022-12-16T09:51:15;0.30;99.90
15819;DHT22;8010;53.986;12.106;2022-12-16T09:54:00;0.30;99.90
15819;DHT22;8010;53.986;12.106;2022-12-16T09:56:46;0.30;99.90
15819;DHT22;8010;53.986;12.106;2022-12-16T09:59:36;0.40;99.90
15819;DHT22;8010;53.986;12.106;2022-12-16T10:02:23;0.40;99.90
15819;DHT22;8010;53.986;12.106;2022-12-16T10:05:13;0.50;99.90
15819;DHT22;8010;53.986;12.106;2022-12-16T10:08:16;0.50;99.90
15819;DHT22;8010;53.986;12.106;2022-12-16T10:11:20;0.60;99.90
15819;DHT22;8010;53.986;12.106;2022-12-16T10:14:16;0.70;99.90
15819;DHT22;8010;53.986;12.106;2022-12-16T10:17:15;0.70;99.90
15819;DHT22;8010;53.986;12.106;2022-12-16T10:20:11;0.70;99.90
15819;DHT22;8010;53.986;12.106;2022-12-16T10:23:02;0.80;99.90
15819;DHT22;8010;53.986;12.106;2022-12-16T10:25:58;0.80;99.90
15819;DHT22;8010;53.986;12.106;2022-12-16T10:28:45;0.90;99.90
15819;DHT22;8010;53.986;12.106;2022-12-16T10:31:31;0.80;99.90
15819;DHT22;8010;53.986;12.106;2022-12-16T10:34:19;0.80;99.90
15819;DHT22;8010;53.986;12.106;2022-12-16T10:37:04;0.80;99.90
15819;DHT22;8010;53.986;12.106;2022-12-16T10:39:52;0.80;99.90
15819;DHT22;8010;53.986;12.106;2022-12-16T10:42:47;0.90;99.90
15819;DHT22;8010;53.986;12.106;2022-12-16T10:45:40;1.00;99.90
15819;DHT22;8010;53.986;12.106;2022-12-16T10:48:28;1.10;99.90
15819;DHT22;8010;53.986;12.106;2022-12-16T10:51:16;1.10;99.90
15819;DHT22;8010;53.986;12.106;2022-12-16T10:54:21;1.20;99.90
15819;DHT22;8010;53.986;12.106;2022-12-16T10:57:29;1.30;99.90
15819;DHT22;8010;53.986;12.106;2022-12-16T11:00:20;1.30;99.90
15819;DHT22;8010;53.986;12.106;2022-12-16T11:03:18;1.40;99.90
15819;DHT22;8010;53.986;12.106;2022-12-16T11:06:03;1.40;99.90
15819;DHT22;8010;53.986;12.106;2022-12-16T11:08:47;1.40;99.90
15819;DHT22;8010;53.986;12.106;2022-12-16T11:11:31;1.50;99.90
15819;DHT22;8010;53.986;12.106;2022-12-16T11:20:07;1.70;99.90
15819;DHT22;8010;53.986;12.106;2022-12-16T11:23:14;1.80;99.90
15819;DHT22;8010;53.986;12.106;2022-12-16T11:26:18;1.80;99.90
15819;DHT22;8010;53.986;12.106;2022-12-16T11:29:16;1.80;99.90
15819;DHT22;8010;53.986;12.106;2022-12-16T11:35:12;1.80;99.90
15819;DHT22;8010;53.986;12.106;2022-12-16T11:37:59;1.80;99.90
15819;DHT22;8010;53.986;12.106;2022-12-16T11:40:44;1.80;99.90
15819;DHT22;8010;53.986;12.106;2022-12-16T11:43:29;1.80;99.90
15819;DHT22;8010;53.986;12.106;2022-12-16T11:46:24;1.90;99.90
15819;DHT22;8010;53.986;12.106;2022-12-16T11:49:26;2.00;99.90
15819;DHT22;8010;53.986;12.106;2022-12-16T11:52:16;2.10;99.90
15819;DHT22;8010;53.986;12.106;2022-12-16T11:58:20;2.90;99.90
15819;DHT22;8010;53.986;12.106;2022-12-16T12:01:17;3.20;99.90
15819;DHT22;8010;53.986;12.106;2022-12-16T12:04:03;3.30;99.90
15819;DHT22;8010;53.986;12.106;2022-12-16T12:09:36;4.50;99.90
15819;DHT22;8010;53.986;12.106;2022-12-16T12:12:30;5.20;99.90
15819;DHT22;8010;53.986;12.106;2022-12-16T12:18:15;6.40;99.90
15819;DHT22;8010;53.986;12.106;2022-12-16T12:21:23;6.70;99.90
15819;DHT22;8010;53.986;12.106;2022-12-16T12:24:23;7.10;99.90
15819;DHT22;8010;53.986;12.106;2022-12-16T12:27:18;7.40;99.90
15819;DHT22;8010;53.986;12.106;2022-12-16T12:36:18;7.80;99.90
15819;DHT22;8010;53.986;12.106;2022-12-16T12:39:28;7.40;99.90
15819;DHT22;8010;53.986;12.106;2022-12-16T12:42:39;7.40;99.90
15819;DHT22;8010;53.986;12.106;2022-12-16T12:48:45;8.00;99.90
15819;DHT22;8010;53.986;12.106;2022-12-16T12:51:54;8.20;99.90
15819;DHT22;8010;53.986;12.106;2022-12-16T12:54:51;8.20;99.90
15819;DHT22;8010;53.986;12.106;2022-12-16T12:57:46;8.30;99.90
15819;DHT22;8010;53.986;12.106;2022-12-16T13:00:34;8.40;99.90
15819;DHT22;8010;53.986;12.106;2022-12-16T13:03:37;8.40;99.90
15819;DHT22;8010;53.986;12.106;2022-12-16T13:06:23;8.50;99.90
15819;DHT22;8010;53.986;12.106;2022-12-16T13:14:54;8.40;99.90
15819;DHT22;8010;53.986;12.106;2022-12-16T13:20:41;8.20;99.90
15819;DHT22;8010;53.986;12.106;2022-12-16T13:23:30;8.10;99.90
15819;DHT22;8010;53.986;12.106;2022-12-16T13:26:17;7.90;99.90
15819;DHT22;8010;53.986;12.106;2022-12-16T13:29:24;7.30;99.90
15819;DHT22;8010;53.986;12.106;2022-12-16T13:32:16;7.10;99.90
15819;DHT22;8010;53.986;12.106;2022-12-16T13:38:03;6.30;99.90
15819;DHT22;8010;53.986;12.106;2022-12-16T13:40:55;6.10;99.90
15819;DHT22;8010;53.986;12.106;2022-12-16T13:46:46;6.20;99.90
15819;DHT22;8010;53.986;12.106;2022-12-16T13:49:44;6.30;99.90
15819;DHT22;8010;53.986;12.106;2022-12-16T13:55:38;6.40;99.90
15819;DHT22;8010;53.986;12.106;2022-12-16T13:58:44;6.30;99.90
15819;DHT22;8010;53.986;12.106;2022-12-16T14:01:51;6.10;99.90
15819;DHT22;8010;53.986;12.106;2022-12-16T14:04:39;5.80;99.90
15819;DHT22;8010;53.986;12.106;2022-12-16T14:07:26;5.60;99.90
15819;DHT22;8010;53.986;12.106;2022-12-16T14:10:32;5.40;99.90
15819;DHT22;8010;53.986;12.106;2022-12-16T14:13:39;5.10;99.90
15819;DHT22;8010;53.986;12.106;2022-12-16T14:16:45;4.70;99.90
15819;DHT22;8010;53.986;12.106;2022-12-16T14:19:37;4.00;99.90
15819;DHT22;8010;53.986;12.106;2022-12-16T14:25:44;3.10;99.90
15819;DHT22;8010;53.986;12.106;2022-12-16T14:28:35;2.30;99.90
15819;DHT22;8010;53.986;12.106;2022-12-16T14:31:26;1.90;99.90
15819;DHT22;8010;53.986;12.106;2022-12-16T14:34:18;1.40;99.90
15819;DHT22;8010;53.986;12.106;2022-12-16T14:37:32;1.10;99.90
15819;DHT22;8010;53.986;12.106;2022-12-16T14:40:20;0.80;99.90
15819;DHT22;8010;53.986;12.106;2022-12-16T14:43:11;0.50;99.90
15819;DHT22;8010;53.986;12.106;2022-12-16T14:45:55;0.20;99.90
15819;DHT22;8010;53.986;12.106;2022-12-16T14:48:39;0.10;99.90
15819;DHT22;8010;53.986;12.106;2022-12-16T14:51:36;-0.10;99.90
15819;DHT22;8010;53.986;12.106;2022-12-16T14:57:30;-0.40;99.90
15819;DHT22;8010;53.986;12.106;2022-12-16T15:00:18;-0.60;99.90
15819;DHT22;8010;53.986;12.106;2022-12-16T15:03:32;-0.70;99.90
15819;DHT22;8010;53.986;12.106;2022-12-16T15:06:40;-0.80;99.90
15819;DHT22;8010;53.986;12.106;2022-12-16T15:09:43;-1.00;99.90
15819;DHT22;8010;53.986;12.106;2022-12-16T15:12:36;-0.30;99.90
15819;DHT22;8010;53.986;12.106;2022-12-16T15:18:18;-1.50;99.90
15819;DHT22;8010;53.986;12.106;2022-12-16T15:21:02;-1.70;99.90
15819;DHT22;8010;53.986;12.106;2022-12-16T15:23:47;-1.90;99.90
15819;DHT22;8010;53.986;12.106;2022-12-16T15:26:33;-2.20;99.90
15819;DHT22;8010;53.986;12.106;2022-12-16T15:29:34;-2.40;99.90
15819;DHT22;8010;53.986;12.106;2022-12-16T15:32:34;-2.70;99.90
15819;DHT22;8010;53.986;12.106;2022-12-16T15:41:03;-3.10;99.90
15819;DHT22;8010;53.986;12.106;2022-12-16T15:43:47;-3.20;99.90
15819;DHT22;8010;53.986;12.106;2022-12-16T15:46:33;-3.20;99.90
15819;DHT22;8010;53.986;12.106;2022-12-16T15:49:26;-3.30;99.90
15819;DHT22;8010;53.986;12.106;2022-12-16T15:52:37;-3.40;99.90
15819;DHT22;8010;53.986;12.106;2022-12-16T15:55:34;-3.50;99.90
15819;DHT22;8010;53.986;12.106;2022-12-16T15:58:29;-3.60;99.90
15819;DHT22;8010;53.986;12.106;2022-12-16T16:01:18;-3.70;99.90
15819;DHT22;8010;53.986;12.106;2022-12-16T16:04:03;-3.80;99.90
15819;DHT22;8010;53.986;12.106;2022-12-16T16:06:58;-4.00;99.90
15819;DHT22;8010;53.986;12.106;2022-12-16T16:09:42;-4.10;99.90
15819;DHT22;8010;53.986;12.106;2022-12-16T16:12:26;-4.30;99.90
15819;DHT22;8010;53.986;12.106;2022-12-16T16:15:13;-4.60;99.90
15819;DHT22;8010;53.986;12.106;2022-12-16T16:18:00;-4.70;99.90
15819;DHT22;8010;53.986;12.106;2022-12-16T16:20:44;-4.80;99.90
15819;DHT22;8010;53.986;12.106;2022-12-16T16:23:28;-4.90;99.90
15819;DHT22;8010;53.986;12.106;2022-12-16T16:26:14;-5.10;99.90
15819;DHT22;8010;53.986;12.106;2022-12-16T16:28:59;-5.10;99.90
15819;DHT22;8010;53.986;12.106;2022-12-16T16:31:43;-5.30;99.90
15819;DHT22;8010;53.986;12.106;2022-12-16T16:34:27;-5.40;99.90
15819;DHT22;8010;53.986;12.106;2022-12-16T16:37:14;-5.50;99.90
15819;DHT22;8010;53.986;12.106;2022-12-16T16:43:16;-5.50;99.90
15819;DHT22;8010;53.986;12.106;2022-12-16T16:46:01;-5.70;99.90
15819;DHT22;8010;53.986;12.106;2022-12-16T16:48:45;-5.10;99.90
15819;DHT22;8010;53.986;12.106;2022-12-16T16:51:29;-6.10;99.90
15819;DHT22;8010;53.986;12.106;2022-12-16T16:54:13;-6.10;99.90
15819;DHT22;8010;53.986;12.106;2022-12-16T16:56:59;-6.10;99.90
15819;DHT22;8010;53.986;12.106;2022-12-16T16:59:44;-6.30;99.90
15819;DHT22;8010;53.986;12.106;2022-12-16T17:02:28;-6.30;99.90
15819;DHT22;8010;53.986;12.106;2022-12-16T17:05:13;-6.20;99.90
15819;DHT22;8010;53.986;12.106;2022-12-16T17:07:57;-6.00;99.90
15819;DHT22;8010;53.986;12.106;2022-12-16T17:10:42;-6.20;99.90
15819;DHT22;8010;53.986;12.106;2022-12-16T17:13:26;-6.20;99.90
15819;DHT22;8010;53.986;12.106;2022-12-16T17:16:11;-6.10;99.90
15819;DHT22;8010;53.986;12.106;2022-12-16T17:18:56;-6.10;99.90
15819;DHT22;8010;53.986;12.106;2022-12-16T17:21:40;-6.10;99.90
15819;DHT22;8010;53.986;12.106;2022-12-16T17:24:24;-6.20;99.90
15819;DHT22;8010;53.986;12.106;2022-12-16T17:27:20;-6.30;99.90
15819;DHT22;8010;53.986;12.106;2022-12-16T17:30:25;-6.30;99.90
15819;DHT22;8010;53.986;12.106;2022-12-16T17:33:09;-6.40;99.90
15819;DHT22;8010;53.986;12.106;2022-12-16T17:35:53;-6.50;99.90
15819;DHT22;8010;53.986;12.106;2022-12-16T17:38:42;-6.40;99.90
15819;DHT22;8010;53.986;12.106;2022-12-16T17:41:31;-6.30;99.90
15819;DHT22;8010;53.986;12.106;2022-12-16T17:44:16;-6.20;99.90
15819;DHT22;8010;53.986;12.106;2022-12-16T17:47:01;-6.10;99.90
15819;DHT22;8010;53.986;12.106;2022-12-16T17:49:45;-6.10;99.90
15819;DHT22;8010;53.986;12.106;2022-12-16T17:52:29;-6.10;99.90
15819;DHT22;8010;53.986;12.106;2022-12-16T17:55:14;-6.20;99.90
15819;DHT22;8010;53.986;12.106;2022-12-16T17:57:58;-6.20;99.90
15819;DHT22;8010;53.986;12.106;2022-12-16T18:00:42;-6.20;99.90
15819;DHT22;8010;53.986;12.106;2022-12-16T18:03:26;-6.20;99.90
15819;DHT22;8010;53.986;12.106;2022-12-16T18:06:11;-6.20;99.90
15819;DHT22;8010;53.986;12.106;2022-12-16T18:08:55;-6.20;99.90
15819;DHT22;8010;53.986;12.106;2022-12-16T18:11:39;-6.30;99.90
15819;DHT22;8010;53.986;12.106;2022-12-16T18:14:23;-6.30;99.90
15819;DHT22;8010;53.986;12.106;2022-12-16T18:17:07;-6.30;99.90
15819;DHT22;8010;53.986;12.106;2022-12-16T18:19:51;-6.40;99.90
15819;DHT22;8010;53.986;12.106;2022-12-16T18:22:35;-6.20;99.90
15819;DHT22;8010;53.986;12.106;2022-12-16T18:25:19;-6.50;99.90
15819;DHT22;8010;53.986;12.106;2022-12-16T18:28:03;-6.50;99.90
15819;DHT22;8010;53.986;12.106;2022-12-16T18:30:47;-6.50;99.90
15819;DHT22;8010;53.986;12.106;2022-12-16T18:33:31;-6.50;99.90
15819;DHT22;8010;53.986;12.106;2022-12-16T18:36:15;-6.50;99.90
15819;DHT22;8010;53.986;12.106;2022-12-16T18:38:59;-6.50;99.90
15819;DHT22;8010;53.986;12.106;2022-12-16T18:41:45;-6.60;99.90
15819;DHT22;8010;53.986;12.106;2022-12-16T18:44:29;-6.50;99.90